sensor_id;sensor_type;location;lat;lon;timestamp;pressure;altitude;pressure_sealevel;temperature;humidity
40490;BME280;26196;52.302;10.572;2023-09-18T00:02:24;100163.69;;;23.03;51.73
40490;BME280;26196;52.302;10.572;2023-09-18T00:06:24;100157.53;;;23.02;51.64
40490;BME280;26196;52.302;10.572;2023-09-18T00:10:28;100162.41;;;22.97;51.44
40490;BME280;26196;52.302;10.572;2023-09-18T00:14:32;100170.41;;;22.97;51.45
40490;BME280;26196;52.302;10.572;2023-09-18T00:18:32;100172.81;;;23.00;51.18
40490;BME280;26196;52.302;10.572;2023-09-18T00:22:33;100151.72;;;22.97;51.33
40490;BME280;26196;52.302;10.572;2023-09-18T00:26:33;100157.06;;;22.97;51.35
40490;BME280;26196;52.302;10.572;2023-09-18T00:30:34;100155.47;;;22.94;51.28
40490;BME280;26196;52.302;10.572;2023-09-18T00:34:34;100144.34;;;22.89;51.40
40490;BME280;26196;52.302;10.572;2023-09-18T00:38:35;100120.81;;;22.83;51.42
40490;BME280;26196;52.302;10.572;2023-09-18T00:42:35;100130.72;;;22.92;51.06
40490;BME280;26196;52.302;10.572;2023-09-18T00:46:36;100111.00;;;22.84;51.00
40490;BME280;26196;52.302;10.572;2023-09-18T00:50:37;100111.47;;;22.89;51.29
40490;BME280;26196;52.302;10.572;2023-09-18T00:54:39;100096.41;;;22.88;51.13
40490;BME280;26196;52.302;10.572;2023-09-18T00:58:40;100094.72;;;22.87;51.02
40490;BME280;26196;52.302;10.572;2023-09-18T01:02:41;100081.78;;;22.82;51.01
40490;BME280;26196;52.302;10.572;2023-09-18T01:06:41;100084.31;;;22.84;50.81
40490;BME280;26196;52.302;10.572;2023-09-18T01:19:16;100063.09;;;22.82;51.22
40490;BME280;26196;52.302;10.572;2023-09-18T01:23:17;100043.41;;;22.74;51.49
40490;BME280;26196;52.302;10.572;2023-09-18T01:27:18;100043.25;;;22.75;51.20
40490;BME280;26196;52.302;10.572;2023-09-18T01:31:19;100039.75;;;22.75;51.06
40490;BME280;26196;52.302;10.572;2023-09-18T01:35:20;100039.84;;;22.73;50.87
40490;BME280;26196;52.302;10.572;2023-09-18T01:39:24;100026.66;;;22.71;50.77
40490;BME280;26196;52.302;10.572;2023-09-18T01:43:27;100019.88;;;22.67;51.13
40490;BME280;26196;52.302;10.572;2023-09-18T01:47:27;100024.13;;;22.70;50.80
40490;BME280;26196;52.302;10.572;2023-09-18T01:51:29;100010.22;;;22.66;50.83
40490;BME280;26196;52.302;10.572;2023-09-18T01:55:30;100002.03;;;22.58;51.00
40490;BME280;26196;52.302;10.572;2023-09-18T01:59:30;100015.81;;;22.63;50.83
40490;BME280;26196;52.302;10.572;2023-09-18T02:03:31;100010.47;;;22.63;51.09
40490;BME280;26196;52.302;10.572;2023-09-18T02:07:31;100002.03;;;22.58;50.74
40490;BME280;26196;52.302;10.572;2023-09-18T02:11:31;99989.19;;;22.52;50.73
40490;BME280;26196;52.302;10.572;2023-09-18T02:15:32;99950.25;;;22.40;50.89
40490;BME280;26196;52.302;10.572;2023-09-18T02:19:33;99965.59;;;22.47;50.98
40490;BME280;26196;52.302;10.572;2023-09-18T02:23:34;99981.63;;;22.57;50.60
40490;BME280;26196;52.302;10.572;2023-09-18T02:27:34;99983.63;;;22.55;50.75
40490;BME280;26196;52.302;10.572;2023-09-18T02:31:34;99980.22;;;22.53;50.66
40490;BME280;26196;52.302;10.572;2023-09-18T02:35:34;99976.84;;;22.51;51.01
40490;BME280;26196;52.302;10.572;2023-09-18T02:39:35;99981.06;;;22.54;51.00
40490;BME280;26196;52.302;10.572;2023-09-18T02:43:35;99975.00;;;22.52;50.59
40490;BME280;26196;52.302;10.572;2023-09-18T02:47:37;99962.22;;;22.45;51.24
40490;BME280;26196;52.302;10.572;2023-09-18T02:51:42;99962.06;;;22.47;50.69
40490;BME280;26196;52.302;10.572;2023-09-18T02:55:42;99955.91;;;22.46;51.05
40490;BME280;26196;52.302;10.572;2023-09-18T02:59:43;99940.28;;;22.42;50.99
40490;BME280;26196;52.302;10.572;2023-09-18T03:03:44;99940.72;;;22.47;53.02
40490;BME280;26196;52.302;10.572;2023-09-18T03:07:44;99940.28;;;22.42;55.06
40490;BME280;26196;52.302;10.572;2023-09-18T03:11:44;99933.16;;;22.42;54.31
40490;BME280;26196;52.302;10.572;2023-09-18T03:15:45;99931.91;;;22.46;54.53
40490;BME280;26196;52.302;10.572;2023-09-18T03:19:50;99925.00;;;22.44;54.98
40490;BME280;26196;52.302;10.572;2023-09-18T03:23:50;99925.00;;;22.44;55.68
40490;BME280;26196;52.302;10.572;2023-09-18T03:27:52;99921.09;;;22.48;55.65
40490;BME280;26196;52.302;10.572;2023-09-18T03:31:53;99905.63;;;22.42;55.20
40490;BME280;26196;52.302;10.572;2023-09-18T03:35:53;99905.38;;;22.45;54.85
40490;BME280;26196;52.302;10.572;2023-09-18T03:39:54;99910.00;;;22.43;54.72
40490;BME280;26196;52.302;10.572;2023-09-18T03:43:55;99892.56;;;22.39;53.42
40490;BME280;26196;52.302;10.572;2023-09-18T03:47:55;99886.81;;;22.43;53.03
40490;BME280;26196;52.302;10.572;2023-09-18T03:51:55;99876.38;;;22.31;56.27
40490;BME280;26196;52.302;10.572;2023-09-18T03:55:57;99868.72;;;22.37;56.03
40490;BME280;26196;52.302;10.572;2023-09-18T03:59:58;99853.50;;;22.28;56.19
40490;BME280;26196;52.302;10.572;2023-09-18T04:03:58;99857.72;;;22.31;56.03
40490;BME280;26196;52.302;10.572;2023-09-18T04:08:00;99863.78;;;22.33;56.41
40490;BME280;26196;52.302;10.572;2023-09-18T04:12:01;99845.38;;;22.30;56.30
40490;BME280;26196;52.302;10.572;2023-09-18T04:16:02;99835.44;;;22.32;56.10
40490;BME280;26196;52.302;10.572;2023-09-18T04:20:04;99828.28;;;22.32;55.89
40490;BME280;26196;52.302;10.572;2023-09-18T04:24:04;99826.84;;;22.28;55.94
40490;BME280;26196;52.302;10.572;2023-09-18T04:28:05;99806.19;;;22.20;55.63
40490;BME280;26196;52.302;10.572;2023-09-18T04:32:06;99811.94;;;22.25;55.64
40490;BME280;26196;52.302;10.572;2023-09-18T04:36:06;99805.78;;;22.25;55.19
40490;BME280;26196;52.302;10.572;2023-09-18T04:40:07;99792.84;;;22.20;55.07
40490;BME280;26196;52.302;10.572;2023-09-18T04:44:11;99783.63;;;22.24;54.90
40490;BME280;26196;52.302;10.572;2023-09-18T04:48:12;99778.78;;;22.18;54.79
40490;BME280;26196;52.302;10.572;2023-09-18T04:52:13;99778.09;;;22.16;54.80
40490;BME280;26196;52.302;10.572;2023-09-18T04:56:13;99772.03;;;22.14;54.45
40490;BME280;26196;52.302;10.572;2023-09-18T05:00:14;99767.53;;;22.15;54.55
40490;BME280;26196;52.302;10.572;2023-09-18T05:04:21;99762.09;;;22.16;54.46
40490;BME280;26196;52.302;10.572;2023-09-18T05:08:21;99755.31;;;22.12;54.60
40490;BME280;26196;52.302;10.572;2023-09-18T05:12:22;99732.16;;;22.03;54.38
40490;BME280;26196;52.302;10.572;2023-09-18T05:16:23;99750.28;;;22.09;54.39
40490;BME280;26196;52.302;10.572;2023-09-18T05:20:28;99745.38;;;22.14;54.97
40490;BME280;26196;52.302;10.572;2023-09-18T05:24:28;99738.63;;;22.10;54.47
40490;BME280;26196;52.302;10.572;2023-09-18T05:28:29;99731.34;;;22.12;54.63
40490;BME280;26196;52.302;10.572;2023-09-18T05:32:29;99707.47;;;22.01;54.78
40490;BME280;26196;52.302;10.572;2023-09-18T05:36:30;99708.75;;;22.06;54.81
40490;BME280;26196;52.302;10.572;2023-09-18T05:40:30;99727.00;;;22.11;54.75
40490;BME280;26196;52.302;10.572;2023-09-18T05:44:31;99715.47;;;22.11;54.70
40490;BME280;26196;52.302;10.572;2023-09-18T05:48:32;99703.97;;;22.10;55.42
40490;BME280;26196;52.302;10.572;2023-09-18T05:52:33;99693.88;;;22.04;55.28
40490;BME280;26196;52.302;10.572;2023-09-18T05:56:33;99679.25;;;21.98;55.23
40490;BME280;26196;52.302;10.572;2023-09-18T06:00:34;99695.41;;;22.06;55.16
40490;BME280;26196;52.302;10.572;2023-09-18T06:04:34;99703.13;;;22.10;55.22
40490;BME280;26196;52.302;10.572;2023-09-18T06:08:37;99712.25;;;22.07;54.72
40490;BME280;26196;52.302;10.572;2023-09-18T06:12:40;99727.97;;;22.10;54.86
40490;BME280;26196;52.302;10.572;2023-09-18T06:16:40;99712.41;;;22.15;54.23
40490;BME280;26196;52.302;10.572;2023-09-18T06:20:41;99721.13;;;22.17;54.16
40490;BME280;26196;52.302;10.572;2023-09-18T06:24:43;99704.25;;;22.07;53.57
40490;BME280;26196;52.302;10.572;2023-09-18T06:28:44;99729.13;;;22.17;54.32
40490;BME280;26196;52.302;10.572;2023-09-18T06:32:44;99710.13;;;22.11;54.34
40490;BME280;26196;52.302;10.572;2023-09-18T06:36:47;99705.13;;;22.17;54.21
40490;BME280;26196;52.302;10.572;2023-09-18T06:40:49;99684.09;;;22.14;54.70
40490;BME280;26196;52.302;10.572;2023-09-18T06:44:50;99671.72;;;22.13;54.24
40490;BME280;26196;52.302;10.572;2023-09-18T06:48:50;99660.22;;;22.13;54.84
40490;BME280;26196;52.302;10.572;2023-09-18T06:52:51;99652.81;;;22.16;54.42
40490;BME280;26196;52.302;10.572;2023-09-18T06:56:51;99640.44;;;22.15;54.40
40490;BME280;26196;52.302;10.572;2023-09-18T07:00:52;99632.31;;;22.17;54.51
40490;BME280;26196;52.302;10.572;2023-09-18T07:04:52;99616.34;;;22.17;54.63
40490;BME280;26196;52.302;10.572;2023-09-18T07:08:53;99603.69;;;22.09;54.79
40490;BME280;26196;52.302;10.572;2023-09-18T07:12:53;99606.50;;;22.17;54.95
40490;BME280;26196;52.302;10.572;2023-09-18T07:16:53;99606.06;;;22.12;54.52
40490;BME280;26196;52.302;10.572;2023-09-18T07:20:53;99622.50;;;22.17;54.99
40490;BME280;26196;52.302;10.572;2023-09-18T07:24:54;99621.41;;;22.20;54.62
40490;BME280;26196;52.302;10.572;2023-09-18T07:28:55;99619.13;;;22.15;54.76
40490;BME280;26196;52.302;10.572;2023-09-18T07:32:55;99609.88;;;22.10;54.80
40490;BME280;26196;52.302;10.572;2023-09-18T07:36:58;99641.63;;;22.22;54.85
40490;BME280;26196;52.302;10.572;2023-09-18T07:40:59;99623.50;;;22.16;55.11
40490;BME280;26196;52.302;10.572;2023-09-18T07:44:59;99645.28;;;22.21;54.84
40490;BME280;26196;52.302;10.572;2023-09-18T07:49:00;99629.06;;;22.13;54.81
40490;BME280;26196;52.302;10.572;2023-09-18T07:53:01;99631.50;;;22.16;55.10
40490;BME280;26196;52.302;10.572;2023-09-18T07:57:03;99622.78;;;22.14;55.03
40490;BME280;26196;52.302;10.572;2023-09-18T08:01:04;99647.22;;;22.19;54.84
40490;BME280;26196;52.302;10.572;2023-09-18T08:05:05;99642.75;;;22.20;55.05
40490;BME280;26196;52.302;10.572;2023-09-18T08:09:06;99649.16;;;22.17;54.65
40490;BME280;26196;52.302;10.572;2023-09-18T08:13:09;99656.78;;;22.22;55.08
40490;BME280;26196;52.302;10.572;2023-09-18T08:17:10;99659.81;;;22.17;54.72
40490;BME280;26196;52.302;10.572;2023-09-18T08:21:10;99665.72;;;22.21;54.96
40490;BME280;26196;52.302;10.572;2023-09-18T08:25:13;99624.84;;;22.01;55.19
40490;BME280;26196;52.302;10.572;2023-09-18T08:29:14;99669.81;;;22.25;55.07
40490;BME280;26196;52.302;10.572;2023-09-18T08:33:14;99658.97;;;22.17;54.83
40490;BME280;26196;52.302;10.572;2023-09-18T08:37:15;99673.88;;;22.19;55.05
40490;BME280;26196;52.302;10.572;2023-09-18T08:41:18;99669.69;;;22.26;55.58
40490;BME280;26196;52.302;10.572;2023-09-18T08:45:34;99654.25;;;22.20;55.60
40490;BME280;26196;52.302;10.572;2023-09-18T08:49:39;99687.38;;;22.27;55.73
40490;BME280;26196;52.302;10.572;2023-09-18T08:53:41;99655.88;;;22.12;55.61
40490;BME280;26196;52.302;10.572;2023-09-18T08:57:41;99647.78;;;22.23;55.45
40490;BME280;26196;52.302;10.572;2023-09-18T09:01:43;99650.63;;;22.21;55.72
40490;BME280;26196;52.302;10.572;2023-09-18T09:05:43;99672.22;;;22.28;55.79
40490;BME280;26196;52.302;10.572;2023-09-18T09:09:44;99677.81;;;22.25;55.83
40490;BME280;26196;52.302;10.572;2023-09-18T09:13:44;99674.72;;;22.20;55.72
40490;BME280;26196;52.302;10.572;2023-09-18T09:17:45;99676.44;;;22.31;56.18
40490;BME280;26196;52.302;10.572;2023-09-18T09:21:46;99667.72;;;22.28;55.97
40490;BME280;26196;52.302;10.572;2023-09-18T09:25:46;99664.38;;;22.26;55.75
40490;BME280;26196;52.302;10.572;2023-09-18T09:29:58;99677.69;;;22.26;56.15
40490;BME280;26196;52.302;10.572;2023-09-18T09:33:59;99657.34;;;22.25;56.28
40490;BME280;26196;52.302;10.572;2023-09-18T09:38:11;99671.09;;;22.31;56.26
40490;BME280;26196;52.302;10.572;2023-09-18T09:42:12;99650.06;;;22.27;55.90
40490;BME280;26196;52.302;10.572;2023-09-18T09:46:17;99660.44;;;22.31;56.65
40490;BME280;26196;52.302;10.572;2023-09-18T09:50:18;99644.72;;;22.27;56.05
40490;BME280;26196;52.302;10.572;2023-09-18T09:54:32;99646.66;;;22.25;55.43
40490;BME280;26196;52.302;10.572;2023-09-18T09:58:34;99651.31;;;22.33;56.03
40490;BME280;26196;52.302;10.572;2023-09-18T10:02:35;99659.19;;;22.35;55.79
40490;BME280;26196;52.302;10.572;2023-09-18T10:06:37;99650.06;;;22.27;56.42
40490;BME280;26196;52.302;10.572;2023-09-18T10:10:45;99685.69;;;22.36;56.31
40490;BME280;26196;52.302;10.572;2023-09-18T10:14:49;99658.75;;;22.30;55.90
40490;BME280;26196;52.302;10.572;2023-09-18T10:19:02;99674.91;;;22.38;56.04
40490;BME280;26196;52.302;10.572;2023-09-18T10:23:14;99660.75;;;22.37;56.02
40490;BME280;26196;52.302;10.572;2023-09-18T10:27:20;99646.97;;;22.32;55.82
40490;BME280;26196;52.302;10.572;2023-09-18T10:31:23;99645.28;;;22.31;55.78
40490;BME280;26196;52.302;10.572;2023-09-18T10:35:23;99658.47;;;22.33;55.88
40490;BME280;26196;52.302;10.572;2023-09-18T10:39:25;99680.94;;;22.40;55.76
40490;BME280;26196;52.302;10.572;2023-09-18T10:43:27;99669.13;;;22.33;55.64
40490;BME280;26196;52.302;10.572;2023-09-18T10:47:27;99661.28;;;22.31;55.77
40490;BME280;26196;52.302;10.572;2023-09-18T10:51:28;99675.19;;;22.35;55.83
40490;BME280;26196;52.302;10.572;2023-09-18T10:55:28;99683.47;;;22.41;55.80
40490;BME280;26196;52.302;10.572;2023-09-18T10:59:29;99687.25;;;22.39;56.17
40490;BME280;26196;52.302;10.572;2023-09-18T11:03:33;99693.16;;;22.42;56.59
40490;BME280;26196;52.302;10.572;2023-09-18T11:07:34;99690.63;;;22.41;56.53
40490;BME280;26196;52.302;10.572;2023-09-18T11:11:34;99681.91;;;22.39;56.38
40490;BME280;26196;52.302;10.572;2023-09-18T11:15:35;99699.47;;;22.41;56.33
40490;BME280;26196;52.302;10.572;2023-09-18T11:19:40;99688.94;;;22.40;56.56
40490;BME280;26196;52.302;10.572;2023-09-18T11:23:43;99709.00;;;22.44;56.49
40490;BME280;26196;52.302;10.572;2023-09-18T11:27:54;99712.66;;;22.43;56.77
40490;BME280;26196;52.302;10.572;2023-09-18T11:31:56;99720.50;;;22.44;56.65
40490;BME280;26196;52.302;10.572;2023-09-18T11:36:28;99722.34;;;22.44;56.53
40490;BME280;26196;52.302;10.572;2023-09-18T11:40:32;99696.50;;;22.44;56.60
40490;BME280;26196;52.302;10.572;2023-09-18T11:44:42;99700.88;;;22.45;56.25
40490;BME280;26196;52.302;10.572;2023-09-18T11:48:49;99705.09;;;22.48;56.35
40490;BME280;26196;52.302;10.572;2023-09-18T11:52:53;99701.72;;;22.46;56.14
40490;BME280;26196;52.302;10.572;2023-09-18T11:56:53;99698.66;;;22.50;56.41
40490;BME280;26196;52.302;10.572;2023-09-18T12:00:54;99689.09;;;22.48;56.48
40490;BME280;26196;52.302;10.572;2023-09-18T12:04:54;99678.72;;;22.45;56.36
40490;BME280;26196;52.302;10.572;2023-09-18T12:08:56;99696.94;;;22.49;56.43
40490;BME280;26196;52.302;10.572;2023-09-18T12:12:57;99705.66;;;22.52;56.73
40490;BME280;26196;52.302;10.572;2023-09-18T12:17:02;99706.66;;;22.50;56.77
40490;BME280;26196;52.302;10.572;2023-09-18T12:21:07;99715.47;;;22.51;56.66
40490;BME280;26196;52.302;10.572;2023-09-18T12:25:09;99696.53;;;22.54;55.81
40490;BME280;26196;52.302;10.572;2023-09-18T12:29:09;99684.91;;;22.55;56.63
40490;BME280;26196;52.302;10.572;2023-09-18T12:33:11;99682.66;;;22.50;57.04
40490;BME280;26196;52.302;10.572;2023-09-18T12:37:12;99693.75;;;22.56;56.95
40490;BME280;26196;52.302;10.572;2023-09-18T12:41:14;99683.88;;;22.46;57.01
40490;BME280;26196;52.302;10.572;2023-09-18T12:45:14;99710.72;;;22.55;56.92
40490;BME280;26196;52.302;10.572;2023-09-18T12:49:22;99722.81;;;22.59;56.96
40490;BME280;26196;52.302;10.572;2023-09-18T12:53:30;99697.22;;;22.46;56.28
40490;BME280;26196;52.302;10.572;2023-09-18T12:57:31;99667.47;;;22.51;56.95
40490;BME280;26196;52.302;10.572;2023-09-18T13:01:32;99672.25;;;22.57;57.06
40490;BME280;26196;52.302;10.572;2023-09-18T13:05:39;99698.78;;;22.59;56.83
40490;BME280;26196;52.302;10.572;2023-09-18T13:09:40;99688.13;;;22.59;56.71
40490;BME280;26196;52.302;10.572;2023-09-18T13:13:41;99687.72;;;22.63;56.82
40490;BME280;26196;52.302;10.572;2023-09-18T13:17:44;99686.44;;;22.67;56.77
40490;BME280;26196;52.302;10.572;2023-09-18T13:21:49;99696.69;;;22.62;56.30
40490;BME280;26196;52.302;10.572;2023-09-18T13:25:49;99689.97;;;22.58;56.35
40490;BME280;26196;52.302;10.572;2023-09-18T13:29:51;99693.06;;;22.63;58.00
40490;BME280;26196;52.302;10.572;2023-09-18T13:33:54;99698.53;;;22.71;57.87
40490;BME280;26196;52.302;10.572;2023-09-18T13:37:54;99684.34;;;22.71;56.80
40490;BME280;26196;52.302;10.572;2023-09-18T13:41:55;99671.00;;;22.61;57.47
40490;BME280;26196;52.302;10.572;2023-09-18T13:45:57;99703.03;;;22.71;57.42
40490;BME280;26196;52.302;10.572;2023-09-18T13:50:04;99694.31;;;22.69;57.19
40490;BME280;26196;52.302;10.572;2023-09-18T13:54:07;99695.00;;;22.61;57.83
40490;BME280;26196;52.302;10.572;2023-09-18T13:58:08;99702.31;;;22.69;57.82
40490;BME280;26196;52.302;10.572;2023-09-18T14:02:09;99702.16;;;22.70;57.59
40490;BME280;26196;52.302;10.572;2023-09-18T14:06:10;99705.69;;;22.61;57.41
40490;BME280;26196;52.302;10.572;2023-09-18T14:10:11;99713.41;;;22.74;56.42
40490;BME280;26196;52.302;10.572;2023-09-18T14:14:11;99697.81;;;22.69;56.80
40490;BME280;26196;52.302;10.572;2023-09-18T14:18:12;99692.34;;;22.71;56.68
40490;BME280;26196;52.302;10.572;2023-09-18T14:22:13;99689.09;;;22.67;57.16
40490;BME280;26196;52.302;10.572;2023-09-18T14:26:14;99697.53;;;22.72;56.92
40490;BME280;26196;52.302;10.572;2023-09-18T14:30:15;99680.97;;;22.69;56.83
40490;BME280;26196;52.302;10.572;2023-09-18T14:34:16;99703.44;;;22.76;56.53
40490;BME280;26196;52.302;10.572;2023-09-18T14:38:16;99693.63;;;22.77;56.00
40490;BME280;26196;52.302;10.572;2023-09-18T14:42:16;99690.94;;;22.77;56.61
40490;BME280;26196;52.302;10.572;2023-09-18T14:46:18;99681.53;;;22.72;56.84
40490;BME280;26196;52.302;10.572;2023-09-18T14:50:20;99700.06;;;22.74;57.23
40490;BME280;26196;52.302;10.572;2023-09-18T14:54:21;99697.97;;;22.78;56.75
40490;BME280;26196;52.302;10.572;2023-09-18T14:58:22;99676.47;;;22.69;56.77
40490;BME280;26196;52.302;10.572;2023-09-18T15:02:23;99680.56;;;22.74;56.99
40490;BME280;26196;52.302;10.572;2023-09-18T15:06:29;99678.56;;;22.76;56.73
40490;BME280;26196;52.302;10.572;2023-09-18T15:10:31;99663.56;;;22.75;56.67
40490;BME280;26196;52.302;10.572;2023-09-18T15:14:31;99679.16;;;22.79;56.41
40490;BME280;26196;52.302;10.572;2023-09-18T15:18:32;99670.16;;;22.80;56.43
40490;BME280;26196;52.302;10.572;2023-09-18T15:22:32;99656.69;;;22.72;56.73
40490;BME280;26196;52.302;10.572;2023-09-18T15:26:32;99661.03;;;22.73;56.54
40490;BME280;26196;52.302;10.572;2023-09-18T15:30:34;99664.41;;;22.75;56.27
40490;BME280;26196;52.302;10.572;2023-09-18T15:34:35;99649.94;;;22.78;56.07
40490;BME280;26196;52.302;10.572;2023-09-18T15:38:36;99636.34;;;22.71;57.14
40490;BME280;26196;52.302;10.572;2023-09-18T15:42:39;99650.66;;;22.80;57.21
40490;BME280;26196;52.302;10.572;2023-09-18T15:46:39;99611.63;;;22.59;56.85
40490;BME280;26196;52.302;10.572;2023-09-18T15:50:39;99657.94;;;22.78;56.39
40490;BME280;26196;52.302;10.572;2023-09-18T15:54:42;99651.22;;;22.74;57.03
40490;BME280;26196;52.302;10.572;2023-09-18T15:58:44;99657.53;;;22.82;56.66
40490;BME280;26196;52.302;10.572;2023-09-18T16:02:44;99656.69;;;22.82;56.24
40490;BME280;26196;52.302;10.572;2023-09-18T16:06:45;99644.59;;;22.78;56.56
40490;BME280;26196;52.302;10.572;2023-09-18T16:10:46;99654.84;;;22.82;57.01
40490;BME280;26196;52.302;10.572;2023-09-18T16:14:47;99645.19;;;22.81;56.68
40490;BME280;26196;52.302;10.572;2023-09-18T16:18:48;99647.56;;;22.84;55.74
40490;BME280;26196;52.302;10.572;2023-09-18T16:22:51;99639.97;;;22.80;56.30
40490;BME280;26196;52.302;10.572;2023-09-18T16:26:53;99649.53;;;22.82;56.41
40490;BME280;26196;52.302;10.572;2023-09-18T16:30:54;99625.09;;;22.77;55.98
40490;BME280;26196;52.302;10.572;2023-09-18T16:34:55;99636.59;;;22.78;56.41
40490;BME280;26196;52.302;10.572;2023-09-18T16:38:55;99638.97;;;22.81;56.09
40490;BME280;26196;52.302;10.572;2023-09-18T16:42:55;99650.34;;;22.83;56.51
40490;BME280;26196;52.302;10.572;2023-09-18T16:46:56;99638.84;;;22.82;56.67
40490;BME280;26196;52.302;10.572;2023-09-18T16:50:59;99627.88;;;22.85;56.21
40490;BME280;26196;52.302;10.572;2023-09-18T16:55:00;99629.72;;;22.85;56.42
40490;BME280;26196;52.302;10.572;2023-09-18T16:59:04;99629.00;;;22.83;55.92
40490;BME280;26196;52.302;10.572;2023-09-18T17:03:05;99613.00;;;22.83;56.27
40490;BME280;26196;52.302;10.572;2023-09-18T17:07:06;99618.22;;;22.84;56.33
40490;BME280;26196;52.302;10.572;2023-09-18T17:11:08;99613.00;;;22.83;58.16
40490;BME280;26196;52.302;10.572;2023-09-18T17:15:10;99609.78;;;22.79;57.91
40490;BME280;26196;52.302;10.572;2023-09-18T17:19:11;99602.50;;;22.71;57.51
40490;BME280;26196;52.302;10.572;2023-09-18T17:23:13;99612.28;;;22.81;56.05
40490;BME280;26196;52.302;10.572;2023-09-18T17:27:14;99609.63;;;22.81;56.52
40490;BME280;26196;52.302;10.572;2023-09-18T17:31:24;99621.72;;;22.85;56.18
40490;BME280;26196;52.302;10.572;2023-09-18T17:35:27;99625.94;;;22.87;56.28
40490;BME280;26196;52.302;10.572;2023-09-18T17:39:28;99619.34;;;22.82;56.39
40490;BME280;26196;52.302;10.572;2023-09-18T17:43:28;99632.50;;;22.83;55.92
40490;BME280;26196;52.302;10.572;2023-09-18T17:47:29;99624.81;;;22.80;55.62
40490;BME280;26196;52.302;10.572;2023-09-18T17:51:31;99630.97;;;22.81;56.42
40490;BME280;26196;52.302;10.572;2023-09-18T17:55:34;99616.78;;;22.80;56.64
40490;BME280;26196;52.302;10.572;2023-09-18T17:59:34;99635.75;;;22.87;56.28
40490;BME280;26196;52.302;10.572;2023-09-18T18:03:35;99636.19;;;22.82;55.73
40490;BME280;26196;52.302;10.572;2023-09-18T18:07:35;99634.63;;;22.80;55.59
40490;BME280;26196;52.302;10.572;2023-09-18T18:11:36;99637.03;;;22.83;56.33
40490;BME280;26196;52.302;10.572;2023-09-18T18:15:36;99622.28;;;22.79;55.95
40490;BME280;26196;52.302;10.572;2023-09-18T18:19:41;99635.34;;;22.82;55.86
40490;BME280;26196;52.302;10.572;2023-09-18T18:23:44;99631.56;;;22.84;55.88
40490;BME280;26196;52.302;10.572;2023-09-18T18:27:48;99628.19;;;22.82;55.87
40490;BME280;26196;52.302;10.572;2023-09-18T18:31:48;99640.38;;;22.85;56.09
40490;BME280;26196;52.302;10.572;2023-09-18T18:35:50;99635.19;;;22.83;55.81
40490;BME280;26196;52.302;10.572;2023-09-18T18:39:50;99641.09;;;22.87;56.11
40490;BME280;26196;52.302;10.572;2023-09-18T18:43:51;99635.19;;;22.83;56.45
40490;BME280;26196;52.302;10.572;2023-09-18T18:47:51;99626.22;;;22.84;56.13
40490;BME280;26196;52.302;10.572;2023-09-18T18:51:53;99619.63;;;22.79;55.83
40490;BME280;26196;52.302;10.572;2023-09-18T18:55:55;99633.22;;;22.85;55.57
40490;BME280;26196;52.302;10.572;2023-09-18T18:59:56;99627.06;;;22.75;56.15
40490;BME280;26196;52.302;10.572;2023-09-18T19:03:57;99628.88;;;22.75;56.24
40490;BME280;26196;52.302;10.572;2023-09-18T19:07:57;99651.19;;;22.83;55.86
40490;BME280;26196;52.302;10.572;2023-09-18T19:11:57;99632.38;;;22.75;56.41
40490;BME280;26196;52.302;10.572;2023-09-18T19:15:58;99631.25;;;22.78;56.14
40490;BME280;26196;52.302;10.572;2023-09-18T19:19:58;99629.59;;;22.77;55.93
40490;BME280;26196;52.302;10.572;2023-09-18T19:23:59;99634.94;;;22.77;56.13
40490;BME280;26196;52.302;10.572;2023-09-18T19:27:59;99637.19;;;22.81;55.72
40490;BME280;26196;52.302;10.572;2023-09-18T19:32:00;99638.44;;;22.77;55.58
40490;BME280;26196;52.302;10.572;2023-09-18T19:36:00;99640.69;;;22.82;55.31
40490;BME280;26196;52.302;10.572;2023-09-18T19:40:03;99629.59;;;22.77;55.71
40490;BME280;26196;52.302;10.572;2023-09-18T19:44:06;99639.44;;;22.76;55.79
40490;BME280;26196;52.302;10.572;2023-09-18T19:48:07;99636.31;;;22.81;55.32
40490;BME280;26196;52.302;10.572;2023-09-18T19:52:07;99619.88;;;22.76;54.63
40490;BME280;26196;52.302;10.572;2023-09-18T19:56:09;99616.66;;;22.72;55.51
40490;BME280;26196;52.302;10.572;2023-09-18T20:00:10;99616.53;;;22.74;55.66
40490;BME280;26196;52.302;10.572;2023-09-18T20:04:10;99615.53;;;22.75;55.27
40490;BME280;26196;52.302;10.572;2023-09-18T20:08:12;99620.31;;;22.81;54.94
40490;BME280;26196;52.302;10.572;2023-09-18T20:12:12;99612.47;;;22.79;55.00
40490;BME280;26196;52.302;10.572;2023-09-18T20:16:12;99599.81;;;22.71;54.80
40490;BME280;26196;52.302;10.572;2023-09-18T20:20:13;99603.75;;;22.77;55.26
40490;BME280;26196;52.302;10.572;2023-09-18T20:24:13;99600.25;;;22.77;55.02
40490;BME280;26196;52.302;10.572;2023-09-18T20:28:14;99600.38;;;22.75;55.01
40490;BME280;26196;52.302;10.572;2023-09-18T20:32:14;99597.56;;;22.77;54.98
40490;BME280;26196;52.302;10.572;2023-09-18T20:36:14;99595.03;;;22.75;54.68
40490;BME280;26196;52.302;10.572;2023-09-18T20:40:16;99596.16;;;22.72;54.75
40490;BME280;26196;52.302;10.572;2023-09-18T20:44:16;99593.38;;;22.74;55.00
40490;BME280;26196;52.302;10.572;2023-09-18T20:48:16;99603.19;;;22.74;55.08
40490;BME280;26196;52.302;10.572;2023-09-18T20:52:16;99597.28;;;22.70;54.75
40490;BME280;26196;52.302;10.572;2023-09-18T20:56:17;99590.41;;;22.67;55.01
40490;BME280;26196;52.302;10.572;2023-09-18T21:00:18;99596.16;;;22.72;54.77
40490;BME280;26196;52.302;10.572;2023-09-18T21:04:19;99597.16;;;22.71;54.92
40490;BME280;26196;52.302;10.572;2023-09-18T21:08:20;99589.28;;;22.70;54.88
40490;BME280;26196;52.302;10.572;2023-09-18T21:12:20;99596.44;;;22.69;55.04